Time;durP1;ratioP1;P1;durP2;ratioP2;P2;SDS_P1;SDS_P2;PMS_P1;PMS_P2;Temp;Humidity;BMP_temperature;BMP_pressure;BME280_temperature;BME280_humidity;BME280_pressure;Samples;Min_cycle;Max_cycle;Signal;HPM_P1;HPM_P2
2024/01/20 00:01:46;;;;;;;16.50;7.97;;;-0.60;68.40;;;;;;2494310;54;20955;-65
2024/01/20 00:04:12;;;;;;;17.83;8.80;;;-0.50;68.20;;;;;;2494790;54;20975;-63
2024/01/20 00:06:39;;;;;;;12.85;6.53;;;-0.60;67.80;;;;;;2494722;54;20993;-65
2024/01/20 00:09:07;;;;;;;17.23;8.65;;;-0.60;67.50;;;;;;2494547;54;20927;-66
2024/01/20 00:11:38;;;;;;;18.95;8.82;;;-0.70;67.20;;;;;;2265456;55;21780;-64
2024/01/20 00:14:06;;;;;;;19.08;8.38;;;-0.70;67.10;;;;;;2493849;54;21014;-64
2024/01/20 00:16:32;;;;;;;21.48;9.30;;;-0.70;67.00;;;;;;2264815;55;21910;-65
2024/01/20 00:18:59;;;;;;;25.85;10.50;;;-0.80;66.80;;;;;;2264727;55;20998;-65
2024/01/20 00:21:25;;;;;;;27.35;11.80;;;-0.80;66.80;;;;;;2263122;56;20944;-64
2024/01/20 00:23:51;;;;;;;24.55;11.18;;;-0.80;66.60;;;;;;2261288;55;20983;-64
2024/01/20 00:26:18;;;;;;;27.85;12.32;;;-0.80;66.50;;;;;;2260761;55;20964;-64
2024/01/20 00:28:44;;;;;;;24.90;10.35;;;-0.80;66.40;;;;;;2255128;56;20957;-64
2024/01/20 00:31:11;;;;;;;20.45;9.82;;;-0.90;66.20;;;;;;2265082;55;20934;-64
2024/01/20 00:33:37;;;;;;;19.90;8.95;;;-0.90;66.10;;;;;;2264953;55;20995;-66
2024/01/20 00:36:04;;;;;;;19.73;8.65;;;-0.90;66.00;;;;;;2265757;55;20950;-64
2024/01/20 00:38:31;;;;;;;20.12;8.63;;;-1.00;65.80;;;;;;2267454;55;21619;-64
2024/01/20 00:40:57;;;;;;;17.60;7.95;;;-1.00;65.70;;;;;;2254101;56;21590;-65
2024/01/20 00:43:24;;;;;;;18.83;8.85;;;-1.00;65.70;;;;;;2263759;55;21339;-65
2024/01/20 00:45:51;;;;;;;19.40;9.75;;;-1.10;65.50;;;;;;2260107;55;21042;-64
2024/01/20 00:48:17;;;;;;;16.95;8.68;;;-1.10;65.60;;;;;;2264458;55;21019;-66
2024/01/20 00:50:44;;;;;;;20.73;8.45;;;-1.10;65.60;;;;;;2494594;54;20954;-65
2024/01/20 00:53:11;;;;;;;17.15;7.87;;;-1.10;65.60;;;;;;2265088;55;21230;-64
2024/01/20 00:55:37;;;;;;;19.73;8.52;;;-1.10;65.50;;;;;;2267400;55;20987;-64
2024/01/20 00:58:04;;;;;;;21.23;9.50;;;-1.20;65.40;;;;;;2255185;55;20967;-65
2024/01/20 01:00:30;;;;;;;23.92;10.18;;;-1.20;65.30;;;;;;2265004;55;21007;-65
2024/01/20 01:02:56;;;;;;;19.83;8.98;;;-1.20;65.20;;;;;;2493534;54;20983;-64
2024/01/20 01:05:23;;;;;;;20.17;9.60;;;-1.30;65.10;;;;;;2265119;55;21455;-63
2024/01/20 01:07:50;;;;;;;20.92;9.15;;;-1.30;65.10;;;;;;2493271;54;20955;-64
2024/01/20 01:10:17;;;;;;;20.00;8.70;;;-1.30;65.80;;;;;;2494837;54;20951;-65
2024/01/20 01:12:45;;;;;;;20.10;8.38;;;-1.30;65.10;;;;;;2494324;54;20935;-64
2024/01/20 01:15:11;;;;;;;15.70;6.65;;;-1.30;65.20;;;;;;2262740;55;21010;-65
2024/01/20 01:17:38;;;;;;;14.20;7.62;;;-1.30;65.20;;;;;;2264068;55;21017;-63
2024/01/20 01:20:05;;;;;;;12.98;6.12;;;-1.40;65.10;;;;;;2264917;55;20970;-63
2024/01/20 01:22:31;;;;;;;13.68;6.43;;;-1.40;65.20;;;;;;2494265;54;20923;-64
2024/01/20 01:24:57;;;;;;;12.65;6.60;;;-1.40;65.10;;;;;;2264060;55;20959;-64
2024/01/20 01:27:24;;;;;;;13.10;6.15;;;-1.40;65.10;;;;;;2259772;56;20997;-65
2024/01/20 01:29:50;;;;;;;11.07;5.30;;;-1.40;65.10;;;;;;2261929;55;21014;-65
2024/01/20 01:32:17;;;;;;;11.93;5.40;;;-1.40;65.10;;;;;;2265028;55;21006;-64
2024/01/20 01:34:44;;;;;;;12.05;5.47;;;-1.40;65.10;;;;;;2264578;55;20951;-66
2024/01/20 01:37:10;;;;;;;11.05;5.15;;;-1.50;65.00;;;;;;2494005;54;21300;-63
2024/01/20 01:39:36;;;;;;;11.50;5.62;;;-1.50;65.00;;;;;;2264800;55;20951;-66
2024/01/20 01:42:03;;;;;;;11.98;5.57;;;-1.40;65.10;;;;;;2264604;55;20978;-65
2024/01/20 01:44:29;;;;;;;15.30;5.80;;;-1.50;65.00;;;;;;2265237;55;21028;-66
2024/01/20 01:46:55;;;;;;;12.65;5.72;;;-1.50;65.10;;;;;;2257071;56;20931;-63
2024/01/20 01:49:21;;;;;;;15.02;6.43;;;-1.50;65.20;;;;;;2265537;55;21066;-65
2024/01/20 01:51:48;;;;;;;11.10;5.43;;;-1.50;65.10;;;;;;2264726;55;20955;-65
2024/01/20 01:54:15;;;;;;;11.95;4.60;;;-1.60;65.00;;;;;;2494067;54;21043;-65
2024/01/20 01:56:42;;;;;;;11.30;5.55;;;-1.50;65.20;;;;;;2265140;55;21010;-64
2024/01/20 01:59:08;;;;;;;9.55;4.37;;;-1.50;65.10;;;;;;2495115;54;20970;-65
2024/01/20 02:01:35;;;;;;;9.80;4.60;;;-1.50;65.10;;;;;;2264873;55;20927;-64
2024/01/20 02:04:01;;;;;;;10.05;4.78;;;-1.60;64.90;;;;;;2264399;55;21003;-64
2024/01/20 02:06:27;;;;;;;15.48;6.15;;;-1.50;64.90;;;;;;2269023;55;21026;-64
2024/01/20 02:08:53;;;;;;;10.57;4.78;;;-1.80;64.50;;;;;;2255675;55;20970;-66
2024/01/20 02:11:20;;;;;;;11.38;5.60;;;-1.50;64.80;;;;;;2494966;54;21526;-64
2024/01/20 02:13:46;;;;;;;13.07;5.70;;;-1.60;64.60;;;;;;2260288;55;21854;-65
2024/01/20 02:16:13;;;;;;;10.90;5.05;;;-1.70;64.50;;;;;;2489596;54;21025;-65
2024/01/20 02:18:39;;;;;;;9.52;4.43;;;-1.70;64.50;;;;;;2263858;55;20983;-64
2024/01/20 02:21:06;;;;;;;13.07;5.60;;;-1.60;64.50;;;;;;2494456;54;20935;-65
2024/01/20 02:23:35;;;;;;;11.48;5.53;;;-1.70;64.30;;;;;;2264012;55;20958;-65
2024/01/20 02:26:02;;;;;;;13.80;6.62;;;-1.70;64.30;;;;;;2493720;54;20950;-64
2024/01/20 02:28:29;;;;;;;12.85;5.97;;;-1.70;64.30;;;;;;2265179;55;21006;-64
2024/01/20 02:30:55;;;;;;;12.80;5.93;;;-1.80;64.30;;;;;;2264800;55;20979;-63
2024/01/20 02:33:21;;;;;;;14.02;6.05;;;-1.80;64.30;;;;;;2495025;54;20939;-65
2024/01/20 02:35:48;;;;;;;17.62;6.80;;;-1.80;64.30;;;;;;2264889;54;20979;-65
2024/01/20 02:38:14;;;;;;;12.73;5.90;;;-1.80;64.30;;;;;;2264589;55;21118;-63
2024/01/20 02:40:41;;;;;;;15.98;6.70;;;-1.80;64.30;;;;;;2265067;55;20970;-63
2024/01/20 02:43:07;;;;;;;14.35;6.53;;;-1.90;64.20;;;;;;2493832;54;21014;-64
2024/01/20 02:45:35;;;;;;;12.70;5.95;;;-1.90;64.20;;;;;;2265331;55;21120;-64
2024/01/20 02:48:02;;;;;;;12.77;6.12;;;-1.90;64.20;;;;;;2264838;55;21066;-65
2024/01/20 02:50:28;;;;;;;10.60;5.70;;;-1.90;64.20;;;;;;2264788;55;21063;-63
2024/01/20 02:52:55;;;;;;;12.20;5.68;;;-1.90;64.30;;;;;;2263266;55;20985;-64
2024/01/20 02:55:21;;;;;;;11.07;5.30;;;-1.90;64.10;;;;;;2259183;55;20938;-65
2024/01/20 02:57:47;;;;;;;15.32;6.30;;;-1.90;64.10;;;;;;2264863;55;21361;-64
2024/01/20 03:00:16;;;;;;;10.80;5.22;;;-1.90;64.10;;;;;;2493751;54;21042;-65
2024/01/20 03:02:44;;;;;;;10.20;4.60;;;-2.00;64.00;;;;;;2265079;55;20967;-66
2024/01/20 03:05:11;;;;;;;11.18;5.15;;;-2.00;63.90;;;;;;2481433;54;21445;-64
2024/01/20 03:07:37;;;;;;;13.88;5.25;;;-2.00;63.90;;;;;;2265118;55;21031;-65
2024/01/20 03:10:05;;;;;;;10.50;5.45;;;-2.00;63.90;;;;;;2265743;55;20978;-64
2024/01/20 03:12:31;;;;;;;10.48;5.15;;;-2.00;63.80;;;;;;2494271;54;20958;-64
2024/01/20 03:14:57;;;;;;;9.23;4.65;;;-2.00;63.80;;;;;;2484215;54;20961;-63
2024/01/20 03:17:24;;;;;;;8.88;4.62;;;-2.00;63.80;;;;;;2258672;55;20985;-64
2024/01/20 03:19:50;;;;;;;10.60;4.72;;;-2.10;63.70;;;;;;2479528;54;20978;-64
2024/01/20 03:22:17;;;;;;;9.30;4.40;;;-2.10;63.70;;;;;;2264791;55;20946;-64
2024/01/20 03:24:43;;;;;;;10.35;5.05;;;-2.10;63.70;;;;;;2264749;55;21971;-64
2024/01/20 03:27:11;;;;;;;10.50;5.10;;;-2.10;63.70;;;;;;2494242;54;20999;-64
2024/01/20 03:29:37;;;;;;;12.30;5.90;;;-2.10;63.70;;;;;;2481528;54;21178;-64
2024/01/20 03:32:06;;;;;;;12.90;5.82;;;-2.10;63.70;;;;;;2493122;54;21031;-66
2024/01/20 03:34:32;;;;;;;13.00;6.12;;;-2.20;63.60;;;;;;2494527;54;20948;-65
2024/01/20 03:36:59;;;;;;;10.98;4.85;;;-2.20;63.60;;;;;;2493717;54;20975;-65
2024/01/20 03:39:26;;;;;;;12.15;5.25;;;-2.20;63.70;;;;;;2264988;55;21310;-65
2024/01/20 03:41:52;;;;;;;12.48;5.85;;;-2.20;63.70;;;;;;2493450;54;20983;-64
2024/01/20 03:44:19;;;;;;;11.38;5.53;;;-2.20;63.70;;;;;;2263807;55;20971;-65
2024/01/20 03:46:45;;;;;;;10.30;5.03;;;-2.20;63.70;;;;;;2264572;55;21871;-64
2024/01/20 03:49:12;;;;;;;11.00;4.47;;;-2.20;63.70;;;;;;2264691;55;20943;-65
2024/01/20 03:51:39;;;;;;;10.13;4.97;;;-2.20;63.80;;;;;;2265130;55;20974;-66
2024/01/20 03:54:05;;;;;;;9.32;5.05;;;-2.20;63.80;;;;;;2264282;55;20937;-65
2024/01/20 03:56:31;;;;;;;9.23;4.28;;;-2.30;63.80;;;;;;2264822;55;20954;-64
2024/01/20 03:58:58;;;;;;;11.38;4.95;;;-2.30;63.70;;;;;;2264496;55;21091;-64
2024/01/20 04:01:26;;;;;;;10.20;4.37;;;-2.30;63.60;;;;;;2493905;54;20980;-63
2024/01/20 04:03:52;;;;;;;8.48;4.00;;;-2.30;63.60;;;;;;2263966;55;20919;-64
2024/01/20 04:06:19;;;;;;;9.70;4.37;;;-2.30;63.50;;;;;;2265180;55;21018;-64
2024/01/20 04:08:45;;;;;;;10.07;4.80;;;-2.30;63.50;;;;;;2264433;55;20949;-65
2024/01/20 04:11:11;;;;;;;10.00;4.85;;;-2.30;63.50;;;;;;2264770;55;20962;-64
2024/01/20 04:13:38;;;;;;;11.98;5.30;;;-2.40;63.30;;;;;;2494486;54;21078;-65
2024/01/20 04:16:06;;;;;;;9.77;5.00;;;-2.40;63.30;;;;;;2267811;55;20926;-66
2024/01/20 04:18:32;;;;;;;9.55;4.90;;;-2.40;63.40;;;;;;2254345;56;20957;-65
2024/01/20 04:20:58;;;;;;;10.50;5.00;;;-2.40;63.40;;;;;;2262621;55;20958;-64
2024/01/20 04:23:24;;;;;;;9.48;4.47;;;-2.40;63.40;;;;;;2265022;55;20930;-64
2024/01/20 04:25:53;;;;;;;7.68;4.15;;;-2.40;63.30;;;;;;2265237;55;21036;-65
2024/01/20 04:28:19;;;;;;;11.07;5.70;;;-2.40;63.30;;;;;;2264907;55;20970;-63
2024/01/20 04:30:45;;;;;;;9.38;4.25;;;-2.40;63.40;;;;;;2257697;56;20956;-64
2024/01/20 04:33:12;;;;;;;11.35;5.12;;;-2.50;63.30;;;;;;2264504;55;21073;-65
2024/01/20 04:35:38;;;;;;;8.45;4.30;;;-2.50;63.20;;;;;;2265060;55;21282;-65
2024/01/20 04:38:04;;;;;;;9.32;5.00;;;-2.50;63.20;;;;;;2493414;54;20955;-64
2024/01/20 04:40:30;;;;;;;7.22;3.90;;;-2.50;63.30;;;;;;2265576;55;21987;-66
2024/01/20 04:42:57;;;;;;;10.35;4.82;;;-2.50;63.30;;;;;;2264710;55;20958;-65
2024/01/20 04:45:23;;;;;;;11.60;5.15;;;-2.50;63.30;;;;;;2265507;55;20994;-66
2024/01/20 04:47:50;;;;;;;9.85;4.68;;;-2.50;63.30;;;;;;2264998;55;21266;-66
2024/01/20 04:50:16;;;;;;;9.77;4.35;;;-2.50;63.30;;;;;;2494549;54;20971;-66
2024/01/20 04:52:43;;;;;;;11.98;4.75;;;-2.60;63.30;;;;;;2494545;54;20943;-64
2024/01/20 04:55:09;;;;;;;8.07;3.85;;;-2.60;63.20;;;;;;2494862;54;21392;-63
2024/01/20 04:57:35;;;;;;;10.88;5.03;;;-2.60;63.30;;;;;;2265487;55;20942;-66
2024/01/20 05:00:02;;;;;;;11.80;5.35;;;-2.60;63.20;;;;;;2264235;55;21013;-65
2024/01/20 05:02:28;;;;;;;9.15;4.32;;;-2.60;63.20;;;;;;2495275;54;21769;-66
2024/01/20 05:04:54;;;;;;;11.38;4.97;;;-2.60;63.20;;;;;;2494114;54;21019;-65
2024/01/20 05:07:20;;;;;;;10.88;5.55;;;-2.60;63.20;;;;;;2265125;55;20958;-65
2024/01/20 05:09:48;;;;;;;12.23;4.47;;;-2.60;63.10;;;;;;2264852;55;20938;-65
2024/01/20 05:12:14;;;;;;;8.75;4.40;;;-2.60;63.10;;;;;;2265326;55;21002;-65
2024/01/20 05:14:43;;;;;;;9.52;4.70;;;-2.60;63.00;;;;;;2265385;55;20939;-65
2024/01/20 05:17:10;;;;;;;10.27;5.25;;;-2.70;62.90;;;;;;2264423;55;20999;-65
2024/01/20 05:19:39;;;;;;;8.57;4.07;;;-2.70;62.80;;;;;;2265192;55;21342;-64
2024/01/20 05:22:06;;;;;;;10.20;4.60;;;-2.70;62.90;;;;;;2494266;54;21794;-64
2024/01/20 05:24:32;;;;;;;9.77;4.70;;;-2.70;62.90;;;;;;2266419;55;21026;-63
2024/01/20 05:26:58;;;;;;;13.82;5.75;;;-2.70;62.90;;;;;;2257224;56;20925;-64
2024/01/20 05:29:25;;;;;;;9.80;4.87;;;-2.70;62.90;;;;;;2264725;55;21046;-65
2024/01/20 05:31:51;;;;;;;9.80;5.20;;;-2.80;62.90;;;;;;2264833;55;21026;-64
2024/01/20 05:34:17;;;;;;;9.73;4.70;;;-2.70;62.90;;;;;;2265199;55;20967;-65
2024/01/20 05:36:44;;;;;;;12.60;5.40;;;-2.80;62.90;;;;;;2494706;54;21074;-64
2024/01/20 05:39:10;;;;;;;13.82;5.80;;;-2.80;62.90;;;;;;2493856;54;22027;-65
2024/01/20 05:41:36;;;;;;;15.38;6.68;;;-2.80;63.00;;;;;;2264559;55;21217;-64
2024/01/20 05:44:04;;;;;;;11.60;6.05;;;-2.80;63.10;;;;;;2493097;54;20954;-64
2024/01/20 05:46:32;;;;;;;12.57;5.32;;;-2.80;63.30;;;;;;2265739;55;20979;-64
2024/01/20 05:48:59;;;;;;;12.10;5.45;;;-2.80;63.30;;;;;;2493884;54;21113;-64
2024/01/20 05:51:25;;;;;;;12.13;5.37;;;-2.80;63.30;;;;;;2265159;55;20970;-64
2024/01/20 05:53:52;;;;;;;12.90;6.47;;;-2.80;63.30;;;;;;2264702;55;20942;-65
2024/01/20 05:56:23;;;;;;;12.23;5.93;;;-2.80;63.20;;;;;;2494549;54;21047;-66
2024/01/20 05:58:50;;;;;;;12.23;5.75;;;-2.80;63.20;;;;;;2264974;55;21022;-65
2024/01/20 06:01:17;;;;;;;13.55;6.10;;;-2.80;63.10;;;;;;2494302;54;20954;-65
2024/01/20 06:03:43;;;;;;;12.25;6.10;;;-2.80;63.10;;;;;;2494534;54;20982;-65
2024/01/20 06:06:09;;;;;;;11.98;5.47;;;-2.80;63.10;;;;;;2493751;54;21053;-63
2024/01/20 06:08:40;;;;;;;10.73;5.60;;;-2.80;63.00;;;;;;2266175;55;20957;-65
2024/01/20 06:11:08;;;;;;;10.75;5.62;;;-2.70;63.00;;;;;;2254112;56;21872;-64
2024/01/20 06:13:35;;;;;;;11.85;5.78;;;-2.80;62.90;;;;;;2258084;56;21266;-64
2024/01/20 06:16:01;;;;;;;9.15;4.95;;;-2.80;62.80;;;;;;2264136;55;21789;-64
2024/01/20 06:18:27;;;;;;;12.68;5.90;;;-2.90;62.70;;;;;;2267387;55;20943;-64
2024/01/20 06:20:54;;;;;;;12.90;6.30;;;-2.90;62.60;;;;;;2482546;55;20939;-64
2024/01/20 06:23:21;;;;;;;12.02;6.20;;;-2.90;62.50;;;;;;2265674;55;21068;-64
2024/01/20 06:25:47;;;;;;;12.48;5.97;;;-2.90;62.50;;;;;;2257313;55;21000;-64
2024/01/20 06:28:14;;;;;;;12.20;6.55;;;-2.90;62.50;;;;;;2264704;55;20970;-65
2024/01/20 06:30:40;;;;;;;14.57;6.93;;;-2.90;62.60;;;;;;2265969;56;21558;-65
2024/01/20 06:33:06;;;;;;;12.30;6.70;;;-3.00;62.50;;;;;;2494323;54;20982;-63
2024/01/20 06:35:33;;;;;;;15.63;6.87;;;-3.00;62.50;;;;;;2265197;55;21014;-64
2024/01/20 06:38:00;;;;;;;15.88;7.40;;;-3.00;62.50;;;;;;2493701;54;20987;-65
2024/01/20 06:40:26;;;;;;;14.27;6.62;;;-3.00;62.50;;;;;;2494280;54;21642;-64
2024/01/20 06:42:53;;;;;;;15.00;7.37;;;-3.00;62.50;;;;;;2264387;55;20944;-66
2024/01/20 06:45:19;;;;;;;14.23;6.43;;;-3.00;62.50;;;;;;2494365;54;21586;-65
2024/01/20 06:47:46;;;;;;;14.93;7.45;;;-3.00;62.40;;;;;;2265106;55;21007;-64
2024/01/20 06:50:13;;;;;;;18.27;9.77;;;-3.00;62.40;;;;;;2265571;55;20954;-64
2024/01/20 06:52:39;;;;;;;14.82;8.23;;;-3.10;62.20;;;;;;2264938;55;21042;-64
2024/01/20 06:55:06;;;;;;;19.00;9.00;;;-3.10;62.20;;;;;;2264792;55;20911;-64
2024/01/20 06:57:33;;;;;;;23.38;10.80;;;-3.10;62.20;;;;;;2264978;55;22301;-64
2024/01/20 06:59:59;;;;;;;21.42;10.57;;;-3.10;62.20;;;;;;2494093;54;20943;-64
2024/01/20 07:02:27;;;;;;;15.88;8.18;;;-3.10;62.20;;;;;;2265417;55;21066;-64
2024/01/20 07:04:53;;;;;;;17.92;9.65;;;-3.10;62.20;;;;;;2264565;55;21006;-66
2024/01/20 07:07:19;;;;;;;13.48;6.97;;;-3.10;62.20;;;;;;2265001;55;20959;-63
2024/01/20 07:09:45;;;;;;;14.73;7.57;;;-3.10;62.20;;;;;;2495320;54;20962;-64
2024/01/20 07:12:12;;;;;;;18.70;7.82;;;-3.20;62.10;;;;;;2264697;55;22227;-63
2024/01/20 07:14:39;;;;;;;14.90;6.82;;;-3.10;62.20;;;;;;2495115;54;20954;-64
2024/01/20 07:17:05;;;;;;;19.55;8.48;;;-3.20;62.10;;;;;;2480902;54;20962;-64
2024/01/20 07:19:33;;;;;;;14.57;6.90;;;-3.20;62.20;;;;;;2494182;54;21022;-64
2024/01/20 07:21:59;;;;;;;13.52;6.93;;;-3.20;62.20;;;;;;2264845;55;20983;-65
2024/01/20 07:24:27;;;;;;;14.73;7.20;;;-3.20;62.10;;;;;;2487119;54;21016;-65
2024/01/20 07:26:58;;;;;;;13.32;6.60;;;-3.20;62.10;;;;;;2488677;54;21025;-64
2024/01/20 07:29:24;;;;;;;15.82;7.45;;;-3.20;62.00;;;;;;2494184;54;21357;-65
2024/01/20 07:31:50;;;;;;;12.50;6.18;;;-3.30;61.90;;;;;;2264598;55;21006;-64
2024/01/20 07:34:20;;;;;;;18.58;8.10;;;-3.30;61.80;;;;;;2491390;54;21064;-65
2024/01/20 07:36:46;;;;;;;18.55;8.43;;;-3.30;61.90;;;;;;2257150;55;21305;-65
2024/01/20 07:39:13;;;;;;;16.20;8.10;;;-3.40;61.80;;;;;;2265001;55;21002;-64
2024/01/20 07:41:39;;;;;;;20.50;9.55;;;-3.40;61.90;;;;;;2264906;55;20947;-64
2024/01/20 07:44:06;;;;;;;18.00;9.32;;;-3.40;62.00;;;;;;2488166;54;20964;-64
2024/01/20 07:46:32;;;;;;;15.25;8.52;;;-3.40;62.00;;;;;;2258559;56;21031;-63
2024/01/20 07:48:58;;;;;;;20.60;9.45;;;-3.40;62.10;;;;;;2264621;55;20962;-64
2024/01/20 07:51:25;;;;;;;17.15;8.52;;;-3.40;62.10;;;;;;2264578;55;21175;-63
2024/01/20 07:53:51;;;;;;;15.73;8.30;;;-3.40;62.10;;;;;;2494140;54;21039;-64
2024/01/20 07:56:17;;;;;;;16.42;7.95;;;-3.40;62.10;;;;;;2264599;55;20943;-65
2024/01/20 07:58:43;;;;;;;21.37;10.73;;;-3.40;62.00;;;;;;2265402;55;20955;-63
2024/01/20 08:01:10;;;;;;;15.77;8.05;;;-3.40;61.90;;;;;;2265093;55;20947;-63
2024/01/20 08:03:36;;;;;;;16.50;7.78;;;-3.40;61.90;;;;;;2494875;54;20983;-64
2024/01/20 08:06:03;;;;;;;15.82;7.35;;;-3.50;61.80;;;;;;2264116;55;20985;-64
2024/01/20 08:08:30;;;;;;;14.65;7.18;;;-3.40;61.90;;;;;;2258304;56;20943;-65
2024/01/20 08:10:59;;;;;;;16.65;8.00;;;-3.50;61.90;;;;;;2264084;55;20962;-65
2024/01/20 08:13:28;;;;;;;16.15;8.13;;;-3.50;62.00;;;;;;2264970;55;21009;-65
2024/01/20 08:15:58;;;;;;;17.77;8.70;;;-3.50;62.10;;;;;;2493928;54;21001;-65
2024/01/20 08:18:24;;;;;;;17.58;9.02;;;-3.40;62.30;;;;;;2264901;55;20981;-65
2024/01/20 08:20:51;;;;;;;19.58;9.43;;;-3.40;62.40;;;;;;2494778;54;20958;-64
2024/01/20 08:23:17;;;;;;;19.02;9.60;;;-3.40;62.40;;;;;;2264758;55;20999;-65
2024/01/20 08:25:43;;;;;;;24.02;11.68;;;-3.40;62.60;;;;;;2265024;55;21034;-65
2024/01/20 08:28:10;;;;;;;20.77;11.00;;;-3.40;62.70;;;;;;2494547;54;21727;-65
2024/01/20 08:30:38;;;;;;;25.17;13.00;;;-3.40;62.80;;;;;;2264514;55;20963;-64
2024/01/20 08:33:07;;;;;;;28.48;15.18;;;-3.40;62.80;;;;;;2264275;55;20982;-64
2024/01/20 08:35:34;;;;;;;35.55;17.50;;;-3.40;62.90;;;;;;2265086;55;21300;-64
2024/01/20 08:38:01;;;;;;;21.20;12.02;;;-3.30;63.00;;;;;;2481239;54;21001;-65
2024/01/20 08:40:28;;;;;;;46.20;21.65;;;-3.30;63.10;;;;;;2264394;55;20973;-64
2024/01/20 08:42:54;;;;;;;27.10;15.35;;;-3.30;63.20;;;;;;2257015;55;21227;-65
2024/01/20 08:45:20;;;;;;;30.42;16.33;;;-3.30;63.30;;;;;;2259755;55;21013;-65
2024/01/20 08:47:46;;;;;;;27.13;14.93;;;-3.20;63.40;;;;;;2262376;55;21386;-64
2024/01/20 08:50:13;;;;;;;37.30;19.08;;;-3.20;63.50;;;;;;2257327;56;20937;-64
2024/01/20 08:52:39;;;;;;;39.30;20.77;;;-3.20;63.60;;;;;;2258774;55;21423;-64
2024/01/20 08:55:06;;;;;;;37.28;20.23;;;-3.10;63.90;;;;;;2264612;55;21722;-64
2024/01/20 08:57:33;;;;;;;38.00;19.00;;;-3.10;64.10;;;;;;2265404;55;20982;-64
2024/01/20 09:00:03;;;;;;;57.78;25.25;;;-3.00;64.40;;;;;;2494489;54;20963;-64
2024/01/20 09:02:30;;;;;;;37.58;19.17;;;-3.00;64.50;;;;;;2485255;54;21100;-64
2024/01/20 09:04:57;;;;;;;31.92;18.17;;;-2.90;64.80;;;;;;2492425;54;21447;-65
2024/01/20 09:07:26;;;;;;;36.28;18.65;;;-2.90;64.90;;;;;;2265147;55;21144;-65
2024/01/20 09:09:53;;;;;;;32.88;17.15;;;-2.80;65.20;;;;;;2265408;55;21014;-65
2024/01/20 09:12:20;;;;;;;33.58;17.48;;;-2.70;65.40;;;;;;2494184;54;20954;-66
2024/01/20 09:14:48;;;;;;;29.92;15.95;;;-2.70;65.50;;;;;;2266630;55;21571;-64
2024/01/20 09:17:15;;;;;;;29.77;15.32;;;-2.60;65.70;;;;;;2264474;55;20959;-66
2024/01/20 09:19:41;;;;;;;30.92;16.27;;;-2.50;65.90;;;;;;2480279;54;21852;-64
2024/01/20 09:22:08;;;;;;;29.65;15.18;;;-2.50;66.00;;;;;;2491486;54;21579;-64
2024/01/20 09:24:34;;;;;;;31.10;13.95;;;-2.40;66.20;;;;;;2265244;55;20986;-64
2024/01/20 09:27:05;;;;;;;31.95;14.75;;;-2.30;66.30;;;;;;2494179;54;21023;-65
2024/01/20 09:29:31;;;;;;;31.23;15.30;;;-2.30;66.30;;;;;;2267410;55;21069;-65
2024/01/20 09:31:58;;;;;;;31.25;15.45;;;-2.10;66.40;;;;;;2258735;56;20993;-64
2024/01/20 09:34:24;;;;;;;65.68;26.20;;;-2.10;66.40;;;;;;2480943;54;21631;-65
2024/01/20 09:36:50;;;;;;;47.30;23.60;;;-2.10;66.40;;;;;;2490170;54;21060;-63
2024/01/20 09:39:20;;;;;;;37.72;20.02;;;-2.00;66.60;;;;;;2259381;55;21070;-65
2024/01/20 09:41:47;;;;;;;44.00;21.02;;;-1.90;66.90;;;;;;2264690;55;20966;-65
2024/01/20 09:44:15;;;;;;;37.40;19.23;;;-1.80;67.10;;;;;;2264566;55;20979;-65
2024/01/20 09:46:42;;;;;;;35.10;17.67;;;-1.80;67.20;;;;;;2493894;54;21010;-64
2024/01/20 09:49:09;;;;;;;33.33;18.00;;;-1.70;67.40;;;;;;2264934;55;20997;-66
2024/01/20 09:51:38;;;;;;;37.17;18.73;;;-1.60;67.50;;;;;;2485589;55;21384;-65
2024/01/20 09:54:05;;;;;;;35.85;18.55;;;-1.50;67.60;;;;;;2494348;54;21011;-65
2024/01/20 09:56:31;;;;;;;33.88;17.67;;;-1.40;67.70;;;;;;2264363;55;21515;-66
2024/01/20 09:59:00;;;;;;;35.67;17.90;;;-1.40;67.80;;;;;;2264936;55;20931;-66
2024/01/20 10:01:27;;;;;;;35.88;17.80;;;-1.30;68.00;;;;;;2265093;55;20934;-66
2024/01/20 10:03:56;;;;;;;33.97;17.62;;;-1.20;68.20;;;;;;2265108;55;20966;-65
2024/01/20 10:06:24;;;;;;;32.13;16.23;;;-1.10;68.30;;;;;;2493474;54;21908;-66
2024/01/20 10:08:51;;;;;;;31.23;15.02;;;-1.00;68.50;;;;;;2493564;54;21070;-67
2024/01/20 10:11:17;;;;;;;27.10;13.90;;;-1.00;68.50;;;;;;2264875;55;20954;-66
2024/01/20 10:13:44;;;;;;;23.95;12.57;;;-0.90;68.80;;;;;;2264734;55;21026;-66
2024/01/20 10:16:11;;;;;;;24.10;12.82;;;-0.80;69.00;;;;;;2264127;55;21278;-66
2024/01/20 10:18:37;;;;;;;24.83;12.65;;;-0.70;69.20;;;;;;2264729;55;20978;-66
2024/01/20 10:21:04;;;;;;;27.90;13.38;;;-0.60;69.50;;;;;;2264944;55;21022;-66
2024/01/20 10:23:33;;;;;;;27.98;13.10;;;-0.50;70.00;;;;;;2265108;55;21741;-66
2024/01/20 10:26:02;;;;;;;24.05;12.43;;;-0.30;70.50;;;;;;2264518;55;21698;-66
2024/01/20 10:28:29;;;;;;;20.58;11.32;;;-0.20;70.80;;;;;;2264468;55;20986;-66
2024/01/20 10:30:55;;;;;;;24.67;11.88;;;-0.10;70.80;;;;;;2236269;57;20967;-66
2024/01/20 10:33:22;;;;;;;21.55;10.82;;;0.10;70.80;;;;;;2265054;55;21435;-66
2024/01/20 10:35:51;;;;;;;19.85;9.85;;;0.10;71.40;;;;;;2264474;55;21342;-66
2024/01/20 10:38:21;;;;;;;21.08;10.73;;;0.20;70.60;;;;;;2493896;54;20993;-66
2024/01/20 10:40:52;;;;;;;20.05;9.70;;;0.30;70.70;;;;;;2493227;54;21393;-65
2024/01/20 10:43:18;;;;;;;20.05;9.25;;;0.40;70.60;;;;;;2264153;55;20974;-66
2024/01/20 10:46:29;;;;;;;26.98;12.93;;;0.50;70.50;;;;;;2267120;55;20964;-66
2024/01/20 10:48:57;;;;;;;26.80;12.60;;;0.60;70.40;;;;;;2486927;54;21003;-66
2024/01/20 10:51:27;;;;;;;23.60;13.00;;;0.70;70.50;;;;;;2257553;56;21057;-67
2024/01/20 10:53:58;;;;;;;22.85;12.45;;;0.80;70.60;;;;;;2493896;54;20979;-66
2024/01/20 10:56:24;;;;;;;29.98;14.48;;;0.90;70.70;;;;;;2264286;55;20971;-66
2024/01/20 10:59:10;;;;;;;29.27;13.75;;;1.00;70.60;;;;;;2264246;55;20925;-66
2024/01/20 11:01:41;;;;;;;24.25;12.43;;;1.10;70.50;;;;;;2256659;55;21049;-66
2024/01/20 11:04:10;;;;;;;23.25;11.52;;;1.10;70.50;;;;;;2264818;55;20957;-66
2024/01/20 11:06:41;;;;;;;22.55;12.00;;;1.20;70.50;;;;;;2264831;55;20950;-67
2024/01/20 11:09:07;;;;;;;20.65;11.07;;;1.30;70.40;;;;;;2493086;54;21030;-66
2024/01/20 11:11:35;;;;;;;20.77;10.95;;;1.30;70.30;;;;;;2260423;55;20983;-66
2024/01/20 11:14:01;;;;;;;25.40;12.48;;;1.40;70.40;;;;;;2263640;55;20915;-66
2024/01/20 11:16:36;;;;;;;24.30;12.37;;;1.40;71.10;;;;;;2264428;55;20932;-66
2024/01/20 11:19:11;;;;;;;27.35;14.45;;;1.50;70.40;;;;;;2493705;54;20967;-66
2024/01/20 11:21:41;;;;;;;25.25;13.07;;;1.60;70.40;;;;;;2493601;54;20994;-66
2024/01/20 11:24:07;;;;;;;23.90;13.13;;;1.60;70.30;;;;;;2263461;55;21044;-66
2024/01/20 11:26:34;;;;;;;25.88;13.90;;;1.70;70.20;;;;;;2259316;55;20966;-67
2024/01/20 11:29:04;;;;;;;23.60;12.43;;;1.70;70.00;;;;;;2266555;55;20966;-67
2024/01/20 11:31:31;;;;;;;26.20;13.45;;;1.80;69.90;;;;;;2265281;55;21102;-67
2024/01/20 11:34:00;;;;;;;26.45;13.48;;;1.80;69.80;;;;;;2491816;54;21025;-67
2024/01/20 11:36:30;;;;;;;24.75;13.30;;;1.80;69.80;;;;;;2482846;55;21034;-66
2024/01/20 11:38:57;;;;;;;24.10;12.95;;;1.90;70.00;;;;;;2264459;55;21073;-65
2024/01/20 11:41:28;;;;;;;21.80;12.98;;;1.90;70.00;;;;;;2493448;54;20962;-66
2024/01/20 11:43:57;;;;;;;23.60;12.30;;;1.90;70.70;;;;;;2264518;55;20986;-66
2024/01/20 11:46:23;;;;;;;24.30;12.52;;;2.00;70.10;;;;;;2264564;55;21561;-65
2024/01/20 11:48:50;;;;;;;25.70;13.57;;;2.00;70.10;;;;;;2485679;54;21659;-65
2024/01/20 11:51:19;;;;;;;26.08;14.13;;;2.00;70.20;;;;;;2493755;54;20962;-66
2024/01/20 11:53:45;;;;;;;26.23;14.00;;;2.10;70.20;;;;;;2494657;54;20972;-66
2024/01/20 11:56:11;;;;;;;23.70;12.63;;;2.20;70.20;;;;;;2264524;55;20970;-66
2024/01/20 11:58:38;;;;;;;29.33;15.20;;;2.20;70.20;;;;;;2494299;54;20966;-66
2024/01/20 12:01:04;;;;;;;25.40;13.68;;;2.20;70.20;;;;;;2264108;55;21332;-65
2024/01/20 12:03:31;;;;;;;28.62;13.98;;;2.30;70.40;;;;;;2488616;54;21017;-66
2024/01/20 12:06:04;;;;;;;24.00;12.95;;;2.30;70.50;;;;;;2477488;55;20968;-66
2024/01/20 12:08:32;;;;;;;25.45;14.13;;;2.40;70.50;;;;;;2493308;54;20954;-65
2024/01/20 12:11:00;;;;;;;24.15;12.95;;;2.40;70.40;;;;;;2264101;55;21018;-66
2024/01/20 12:13:32;;;;;;;23.00;12.90;;;2.50;70.40;;;;;;2264031;55;21551;-66
2024/01/20 12:15:58;;;;;;;22.92;12.13;;;2.50;70.40;;;;;;2494246;54;21426;-66
2024/01/20 12:18:25;;;;;;;21.08;12.35;;;2.50;70.30;;;;;;2264457;55;21077;-66
2024/01/20 12:20:51;;;;;;;23.12;12.10;;;2.60;70.50;;;;;;2264727;55;20946;-66
2024/01/20 12:23:19;;;;;;;23.55;12.73;;;2.60;70.50;;;;;;2265687;55;20947;-66
2024/01/20 12:25:51;;;;;;;21.85;12.02;;;2.70;70.50;;;;;;2493757;54;20970;-65
2024/01/20 12:28:18;;;;;;;22.77;11.63;;;2.70;70.40;;;;;;2493446;54;21006;-66
2024/01/20 12:30:44;;;;;;;21.37;12.45;;;2.70;70.30;;;;;;2492673;54;20998;-66
2024/01/20 12:33:11;;;;;;;20.95;12.32;;;2.80;70.50;;;;;;2493975;54;20935;-66
2024/01/20 12:35:37;;;;;;;20.58;11.57;;;2.80;70.50;;;;;;2264783;55;20946;-67